Terminal Aerodrome Forecast
Issued by NWS

Home | Current Version | Previous Version | Text Only | Print | Product List | Glossary On
Versions: 1 2 3 4 5 6 7 8 9 10 11 12 13 14
000
FTUS45 KABQ 212328
TAFFMN
TAF
KFMN 212328Z 2200/2224 25010KT P6SM VCTS SCT080CB
      TEMPO 2200/2203 VRB25G35KT -TSRA BKN070CB
     FM220300 05008KT P6SM VCSH BKN100
     FM220800 08006KT P6SM BKN120
     FM221500 VRB06KT P6SM SCT120
     FM222000 24007KT P6SM VCTS SCT080CB SCT150
      TEMPO 2220/2224 VRB25G35KT BKN070CB=

USA.gov is the U.S. government's official web portal to all federal, state and local government web resources and services.